sensor_id;sensor_type;location;lat;lon;timestamp;P1;durP1;ratioP1;P2;durP2;ratioP2
17614;SDS011;8926;49.720;6.576;2023-05-14T00:02:05;2.63;;;2.53;;
17614;SDS011;8926;49.720;6.576;2023-05-14T00:04:31;2.60;;;2.50;;
17614;SDS011;8926;49.720;6.576;2023-05-14T00:06:56;2.37;;;2.27;;
17614;SDS011;8926;49.720;6.576;2023-05-14T00:09:22;2.37;;;2.27;;
17614;SDS011;8926;49.720;6.576;2023-05-14T00:11:48;2.73;;;2.53;;
17614;SDS011;8926;49.720;6.576;2023-05-14T00:14:13;2.70;;;2.60;;
17614;SDS011;8926;49.720;6.576;2023-05-14T00:16:38;2.70;;;2.60;;
17614;SDS011;8926;49.720;6.576;2023-05-14T00:19:03;2.53;;;2.43;;
17614;SDS011;8926;49.720;6.576;2023-05-14T00:21:29;2.90;;;2.70;;
17614;SDS011;8926;49.720;6.576;2023-05-14T00:23:55;3.00;;;2.80;;
17614;SDS011;8926;49.720;6.576;2023-05-14T00:26:21;3.17;;;2.97;;
17614;SDS011;8926;49.720;6.576;2023-05-14T00:28:46;3.00;;;2.80;;
17614;SDS011;8926;49.720;6.576;2023-05-14T00:31:12;3.53;;;3.33;;
17614;SDS011;8926;49.720;6.576;2023-05-14T00:33:38;3.07;;;2.97;;
17614;SDS011;8926;49.720;6.576;2023-05-14T00:36:03;4.47;;;4.17;;
17614;SDS011;8926;49.720;6.576;2023-05-14T00:38:28;3.67;;;3.47;;
17614;SDS011;8926;49.720;6.576;2023-05-14T00:40:54;3.47;;;3.27;;
17614;SDS011;8926;49.720;6.576;2023-05-14T00:43:19;4.13;;;3.73;;
17614;SDS011;8926;49.720;6.576;2023-05-14T00:45:46;3.10;;;2.90;;
17614;SDS011;8926;49.720;6.576;2023-05-14T00:48:14;4.07;;;3.77;;
17614;SDS011;8926;49.720;6.576;2023-05-14T00:50:39;3.57;;;3.37;;
17614;SDS011;8926;49.720;6.576;2023-05-14T00:53:05;4.50;;;4.20;;
17614;SDS011;8926;49.720;6.576;2023-05-14T00:55:34;5.47;;;5.10;;
17614;SDS011;8926;49.720;6.576;2023-05-14T00:58:01;3.90;;;3.70;;
17614;SDS011;8926;49.720;6.576;2023-05-14T01:00:28;3.97;;;3.73;;
17614;SDS011;8926;49.720;6.576;2023-05-14T01:02:54;4.20;;;4.00;;
17614;SDS011;8926;49.720;6.576;2023-05-14T01:05:19;3.57;;;3.33;;
17614;SDS011;8926;49.720;6.576;2023-05-14T01:11:13;3.00;;;2.90;;
17614;SDS011;8926;49.720;6.576;2023-05-14T01:16:36;3.23;;;3.03;;
17614;SDS011;8926;49.720;6.576;2023-05-14T01:19:04;3.30;;;3.10;;
17614;SDS011;8926;49.720;6.576;2023-05-14T01:21:37;3.60;;;3.40;;
17614;SDS011;8926;49.720;6.576;2023-05-14T01:24:06;2.83;;;2.73;;
17614;SDS011;8926;49.720;6.576;2023-05-14T01:26:32;2.87;;;2.73;;
17614;SDS011;8926;49.720;6.576;2023-05-14T01:29:04;2.40;;;2.30;;
17614;SDS011;8926;49.720;6.576;2023-05-14T01:31:37;3.33;;;3.13;;
17614;SDS011;8926;49.720;6.576;2023-05-14T01:34:06;3.80;;;3.50;;
17614;SDS011;8926;49.720;6.576;2023-05-14T01:36:33;3.10;;;2.90;;
17614;SDS011;8926;49.720;6.576;2023-05-14T01:38:59;2.80;;;2.70;;
17614;SDS011;8926;49.720;6.576;2023-05-14T01:41:26;3.17;;;2.97;;
17614;SDS011;8926;49.720;6.576;2023-05-14T01:43:52;2.87;;;2.73;;
17614;SDS011;8926;49.720;6.576;2023-05-14T01:46:17;2.90;;;2.80;;
17614;SDS011;8926;49.720;6.576;2023-05-14T01:48:43;3.13;;;3.03;;
17614;SDS011;8926;49.720;6.576;2023-05-14T01:51:08;2.80;;;2.70;;
17614;SDS011;8926;49.720;6.576;2023-05-14T01:53:34;2.83;;;2.73;;
17614;SDS011;8926;49.720;6.576;2023-05-14T01:55:59;2.90;;;2.70;;
17614;SDS011;8926;49.720;6.576;2023-05-14T01:58:25;2.70;;;2.60;;
17614;SDS011;8926;49.720;6.576;2023-05-14T02:00:50;3.20;;;3.00;;
17614;SDS011;8926;49.720;6.576;2023-05-14T02:03:15;2.67;;;2.57;;
17614;SDS011;8926;49.720;6.576;2023-05-14T02:05:40;3.10;;;2.90;;
17614;SDS011;8926;49.720;6.576;2023-05-14T02:08:06;2.37;;;2.27;;
17614;SDS011;8926;49.720;6.576;2023-05-14T02:10:31;2.90;;;2.70;;
17614;SDS011;8926;49.720;6.576;2023-05-14T02:12:56;2.50;;;2.40;;
17614;SDS011;8926;49.720;6.576;2023-05-14T02:15:22;2.90;;;2.80;;
17614;SDS011;8926;49.720;6.576;2023-05-14T02:17:47;3.33;;;3.13;;
17614;SDS011;8926;49.720;6.576;2023-05-14T02:20:12;2.63;;;2.43;;
17614;SDS011;8926;49.720;6.576;2023-05-14T02:22:38;2.87;;;2.70;;
17614;SDS011;8926;49.720;6.576;2023-05-14T02:25:06;2.60;;;2.50;;
17614;SDS011;8926;49.720;6.576;2023-05-14T02:27:32;3.23;;;3.03;;
17614;SDS011;8926;49.720;6.576;2023-05-14T02:29:57;2.90;;;2.70;;
17614;SDS011;8926;49.720;6.576;2023-05-14T02:32:24;3.17;;;2.90;;
17614;SDS011;8926;49.720;6.576;2023-05-14T02:34:50;2.93;;;2.73;;
17614;SDS011;8926;49.720;6.576;2023-05-14T02:37:15;2.60;;;2.50;;
17614;SDS011;8926;49.720;6.576;2023-05-14T02:39:41;2.40;;;2.23;;
17614;SDS011;8926;49.720;6.576;2023-05-14T02:42:06;2.67;;;2.57;;
17614;SDS011;8926;49.720;6.576;2023-05-14T02:44:31;2.60;;;2.50;;
17614;SDS011;8926;49.720;6.576;2023-05-14T02:46:57;3.10;;;3.00;;
17614;SDS011;8926;49.720;6.576;2023-05-14T02:49:22;2.87;;;2.77;;
17614;SDS011;8926;49.720;6.576;2023-05-14T02:51:47;2.70;;;2.60;;
17614;SDS011;8926;49.720;6.576;2023-05-14T02:54:13;2.93;;;2.77;;
17614;SDS011;8926;49.720;6.576;2023-05-14T02:56:40;3.30;;;3.10;;
17614;SDS011;8926;49.720;6.576;2023-05-14T02:59:05;2.80;;;2.70;;
17614;SDS011;8926;49.720;6.576;2023-05-14T03:01:30;2.60;;;2.50;;
17614;SDS011;8926;49.720;6.576;2023-05-14T03:03:56;3.03;;;2.83;;
17614;SDS011;8926;49.720;6.576;2023-05-14T03:06:21;3.00;;;2.90;;
17614;SDS011;8926;49.720;6.576;2023-05-14T03:08:46;2.80;;;2.70;;
17614;SDS011;8926;49.720;6.576;2023-05-14T03:11:12;2.60;;;2.50;;
17614;SDS011;8926;49.720;6.576;2023-05-14T03:13:37;2.60;;;2.50;;
17614;SDS011;8926;49.720;6.576;2023-05-14T03:16:02;2.70;;;2.60;;
17614;SDS011;8926;49.720;6.576;2023-05-14T03:18:28;2.80;;;2.70;;
17614;SDS011;8926;49.720;6.576;2023-05-14T03:20:54;3.83;;;3.53;;
17614;SDS011;8926;49.720;6.576;2023-05-14T03:23:19;3.13;;;2.97;;
17614;SDS011;8926;49.720;6.576;2023-05-14T03:25:45;2.70;;;2.60;;
17614;SDS011;8926;49.720;6.576;2023-05-14T03:28:10;2.47;;;2.37;;
17614;SDS011;8926;49.720;6.576;2023-05-14T03:30:35;2.80;;;2.70;;
17614;SDS011;8926;49.720;6.576;2023-05-14T03:33:01;2.23;;;2.13;;
17614;SDS011;8926;49.720;6.576;2023-05-14T03:35:26;2.47;;;2.37;;
17614;SDS011;8926;49.720;6.576;2023-05-14T03:37:51;3.00;;;2.80;;
17614;SDS011;8926;49.720;6.576;2023-05-14T03:40:17;2.50;;;2.40;;
17614;SDS011;8926;49.720;6.576;2023-05-14T03:42:42;2.40;;;2.30;;
17614;SDS011;8926;49.720;6.576;2023-05-14T03:45:07;3.70;;;3.50;;
17614;SDS011;8926;49.720;6.576;2023-05-14T03:47:33;3.37;;;3.07;;
17614;SDS011;8926;49.720;6.576;2023-05-14T03:49:58;2.70;;;2.60;;
17614;SDS011;8926;49.720;6.576;2023-05-14T03:52:24;3.07;;;2.90;;
17614;SDS011;8926;49.720;6.576;2023-05-14T03:54:49;2.50;;;2.40;;
17614;SDS011;8926;49.720;6.576;2023-05-14T03:57:14;2.30;;;2.20;;
17614;SDS011;8926;49.720;6.576;2023-05-14T03:59:40;2.07;;;1.97;;
17614;SDS011;8926;49.720;6.576;2023-05-14T04:02:05;2.20;;;2.10;;
17614;SDS011;8926;49.720;6.576;2023-05-14T04:04:31;2.43;;;2.33;;
17614;SDS011;8926;49.720;6.576;2023-05-14T04:06:56;2.30;;;2.20;;
17614;SDS011;8926;49.720;6.576;2023-05-14T04:09:21;2.40;;;2.30;;
17614;SDS011;8926;49.720;6.576;2023-05-14T04:11:47;2.23;;;2.13;;
17614;SDS011;8926;49.720;6.576;2023-05-14T04:14:12;2.17;;;2.07;;
17614;SDS011;8926;49.720;6.576;2023-05-14T04:16:38;2.50;;;2.40;;
17614;SDS011;8926;49.720;6.576;2023-05-14T04:19:03;2.10;;;2.00;;
17614;SDS011;8926;49.720;6.576;2023-05-14T04:21:29;2.57;;;2.47;;
17614;SDS011;8926;49.720;6.576;2023-05-14T04:23:55;2.40;;;2.20;;
17614;SDS011;8926;49.720;6.576;2023-05-14T04:26:20;2.43;;;2.33;;
17614;SDS011;8926;49.720;6.576;2023-05-14T04:28:45;1.80;;;1.70;;
17614;SDS011;8926;49.720;6.576;2023-05-14T04:31:10;1.77;;;1.70;;
17614;SDS011;8926;49.720;6.576;2023-05-14T04:33:36;2.40;;;2.30;;
17614;SDS011;8926;49.720;6.576;2023-05-14T04:36:01;2.07;;;1.97;;
17614;SDS011;8926;49.720;6.576;2023-05-14T04:38:26;2.47;;;2.37;;
17614;SDS011;8926;49.720;6.576;2023-05-14T04:40:52;2.10;;;2.00;;
17614;SDS011;8926;49.720;6.576;2023-05-14T04:43:17;2.13;;;2.03;;
17614;SDS011;8926;49.720;6.576;2023-05-14T04:45:42;2.27;;;2.17;;
17614;SDS011;8926;49.720;6.576;2023-05-14T04:48:08;2.40;;;2.30;;
17614;SDS011;8926;49.720;6.576;2023-05-14T04:50:33;2.10;;;2.00;;
17614;SDS011;8926;49.720;6.576;2023-05-14T04:52:59;2.00;;;1.90;;
17614;SDS011;8926;49.720;6.576;2023-05-14T04:55:24;2.20;;;2.10;;
17614;SDS011;8926;49.720;6.576;2023-05-14T04:57:50;2.00;;;1.90;;
17614;SDS011;8926;49.720;6.576;2023-05-14T05:00:15;1.77;;;1.67;;
17614;SDS011;8926;49.720;6.576;2023-05-14T05:02:41;2.00;;;1.90;;
17614;SDS011;8926;49.720;6.576;2023-05-14T05:05:07;2.10;;;2.00;;
17614;SDS011;8926;49.720;6.576;2023-05-14T05:07:32;2.00;;;1.90;;
17614;SDS011;8926;49.720;6.576;2023-05-14T05:09:58;2.47;;;2.37;;
17614;SDS011;8926;49.720;6.576;2023-05-14T05:12:24;2.83;;;2.70;;
17614;SDS011;8926;49.720;6.576;2023-05-14T05:14:50;2.27;;;2.17;;
17614;SDS011;8926;49.720;6.576;2023-05-14T05:17:15;2.20;;;2.10;;
17614;SDS011;8926;49.720;6.576;2023-05-14T05:19:40;1.80;;;1.80;;
17614;SDS011;8926;49.720;6.576;2023-05-14T05:22:06;2.33;;;2.23;;
17614;SDS011;8926;49.720;6.576;2023-05-14T05:24:31;2.63;;;2.47;;
17614;SDS011;8926;49.720;6.576;2023-05-14T05:26:56;2.90;;;2.73;;
17614;SDS011;8926;49.720;6.576;2023-05-14T05:29:22;2.03;;;1.93;;
17614;SDS011;8926;49.720;6.576;2023-05-14T05:31:47;2.03;;;1.93;;
17614;SDS011;8926;49.720;6.576;2023-05-14T05:34:13;2.20;;;2.10;;
17614;SDS011;8926;49.720;6.576;2023-05-14T05:36:38;2.40;;;2.30;;
17614;SDS011;8926;49.720;6.576;2023-05-14T05:39:03;2.30;;;2.20;;
17614;SDS011;8926;49.720;6.576;2023-05-14T05:41:28;2.50;;;2.30;;
17614;SDS011;8926;49.720;6.576;2023-05-14T05:43:54;2.20;;;2.10;;
17614;SDS011;8926;49.720;6.576;2023-05-14T05:46:19;2.10;;;2.00;;
17614;SDS011;8926;49.720;6.576;2023-05-14T05:48:45;2.60;;;2.50;;
17614;SDS011;8926;49.720;6.576;2023-05-14T05:51:10;2.17;;;2.07;;
17614;SDS011;8926;49.720;6.576;2023-05-14T05:53:35;2.30;;;2.20;;
17614;SDS011;8926;49.720;6.576;2023-05-14T05:56:01;2.40;;;2.30;;
17614;SDS011;8926;49.720;6.576;2023-05-14T05:58:26;2.47;;;2.37;;
17614;SDS011;8926;49.720;6.576;2023-05-14T06:00:51;2.17;;;2.07;;
17614;SDS011;8926;49.720;6.576;2023-05-14T06:03:17;2.37;;;2.27;;
17614;SDS011;8926;49.720;6.576;2023-05-14T06:05:42;2.27;;;2.17;;
17614;SDS011;8926;49.720;6.576;2023-05-14T06:08:08;2.07;;;1.97;;
17614;SDS011;8926;49.720;6.576;2023-05-14T06:10:33;2.07;;;1.97;;
17614;SDS011;8926;49.720;6.576;2023-05-14T06:13:00;1.90;;;1.80;;
17614;SDS011;8926;49.720;6.576;2023-05-14T06:15:25;2.13;;;2.03;;
17614;SDS011;8926;49.720;6.576;2023-05-14T06:17:50;1.87;;;1.87;;
17614;SDS011;8926;49.720;6.576;2023-05-14T06:20:16;2.03;;;1.93;;
17614;SDS011;8926;49.720;6.576;2023-05-14T06:22:41;1.90;;;1.90;;
17614;SDS011;8926;49.720;6.576;2023-05-14T06:25:06;2.60;;;2.50;;
17614;SDS011;8926;49.720;6.576;2023-05-14T06:27:32;2.40;;;2.30;;
17614;SDS011;8926;49.720;6.576;2023-05-14T06:29:57;2.57;;;2.47;;
17614;SDS011;8926;49.720;6.576;2023-05-14T06:32:22;2.53;;;2.33;;
17614;SDS011;8926;49.720;6.576;2023-05-14T06:34:48;2.50;;;2.30;;
17614;SDS011;8926;49.720;6.576;2023-05-14T06:37:13;2.40;;;2.30;;
17614;SDS011;8926;49.720;6.576;2023-05-14T06:39:38;2.37;;;2.27;;
17614;SDS011;8926;49.720;6.576;2023-05-14T06:42:04;1.97;;;1.87;;
17614;SDS011;8926;49.720;6.576;2023-05-14T06:44:29;2.17;;;2.07;;
17614;SDS011;8926;49.720;6.576;2023-05-14T06:46:55;2.13;;;2.03;;
17614;SDS011;8926;49.720;6.576;2023-05-14T06:49:21;2.70;;;2.60;;
17614;SDS011;8926;49.720;6.576;2023-05-14T06:51:46;2.40;;;2.30;;
17614;SDS011;8926;49.720;6.576;2023-05-14T06:54:12;2.40;;;2.30;;
17614;SDS011;8926;49.720;6.576;2023-05-14T06:56:37;2.00;;;1.90;;
17614;SDS011;8926;49.720;6.576;2023-05-14T06:59:02;2.50;;;2.40;;
17614;SDS011;8926;49.720;6.576;2023-05-14T07:01:28;2.20;;;2.10;;
17614;SDS011;8926;49.720;6.576;2023-05-14T07:03:54;2.37;;;2.27;;
17614;SDS011;8926;49.720;6.576;2023-05-14T07:06:19;3.40;;;3.20;;
17614;SDS011;8926;49.720;6.576;2023-05-14T07:08:45;2.57;;;2.47;;
17614;SDS011;8926;49.720;6.576;2023-05-14T07:11:10;2.90;;;2.80;;
17614;SDS011;8926;49.720;6.576;2023-05-14T07:13:37;3.10;;;3.00;;
17614;SDS011;8926;49.720;6.576;2023-05-14T07:16:03;2.33;;;2.23;;
17614;SDS011;8926;49.720;6.576;2023-05-14T07:18:28;2.33;;;2.23;;
17614;SDS011;8926;49.720;6.576;2023-05-14T07:20:54;2.30;;;2.20;;
17614;SDS011;8926;49.720;6.576;2023-05-14T07:23:19;3.33;;;3.13;;
17614;SDS011;8926;49.720;6.576;2023-05-14T07:25:44;2.60;;;2.50;;
17614;SDS011;8926;49.720;6.576;2023-05-14T07:28:10;2.63;;;2.53;;
17614;SDS011;8926;49.720;6.576;2023-05-14T07:30:36;2.30;;;2.20;;
17614;SDS011;8926;49.720;6.576;2023-05-14T07:33:01;2.60;;;2.50;;
17614;SDS011;8926;49.720;6.576;2023-05-14T07:35:26;3.20;;;3.00;;
17614;SDS011;8926;49.720;6.576;2023-05-14T07:37:52;2.90;;;2.80;;
17614;SDS011;8926;49.720;6.576;2023-05-14T07:40:17;3.13;;;2.93;;
17614;SDS011;8926;49.720;6.576;2023-05-14T07:42:42;2.30;;;2.20;;
17614;SDS011;8926;49.720;6.576;2023-05-14T07:45:08;2.83;;;2.73;;
17614;SDS011;8926;49.720;6.576;2023-05-14T07:47:33;2.70;;;2.60;;
17614;SDS011;8926;49.720;6.576;2023-05-14T07:49:59;2.90;;;2.80;;
17614;SDS011;8926;49.720;6.576;2023-05-14T07:52:24;2.70;;;2.60;;
17614;SDS011;8926;49.720;6.576;2023-05-14T07:54:50;2.87;;;2.77;;
17614;SDS011;8926;49.720;6.576;2023-05-14T07:57:15;2.50;;;2.40;;
17614;SDS011;8926;49.720;6.576;2023-05-14T07:59:41;2.70;;;2.50;;
17614;SDS011;8926;49.720;6.576;2023-05-14T08:02:06;2.80;;;2.60;;
17614;SDS011;8926;49.720;6.576;2023-05-14T08:04:34;2.47;;;2.37;;
17614;SDS011;8926;49.720;6.576;2023-05-14T08:06:59;2.50;;;2.40;;
17614;SDS011;8926;49.720;6.576;2023-05-14T08:09:25;2.17;;;2.07;;
17614;SDS011;8926;49.720;6.576;2023-05-14T08:11:50;2.70;;;2.50;;
17614;SDS011;8926;49.720;6.576;2023-05-14T08:14:15;2.43;;;2.33;;
17614;SDS011;8926;49.720;6.576;2023-05-14T08:16:41;2.30;;;2.20;;
17614;SDS011;8926;49.720;6.576;2023-05-14T08:19:06;2.30;;;2.20;;
17614;SDS011;8926;49.720;6.576;2023-05-14T08:21:31;2.23;;;2.13;;
17614;SDS011;8926;49.720;6.576;2023-05-14T08:23:57;2.40;;;2.30;;
17614;SDS011;8926;49.720;6.576;2023-05-14T08:26:22;2.67;;;2.57;;
17614;SDS011;8926;49.720;6.576;2023-05-14T08:28:47;2.60;;;2.40;;
17614;SDS011;8926;49.720;6.576;2023-05-14T08:31:13;2.70;;;2.60;;
17614;SDS011;8926;49.720;6.576;2023-05-14T08:33:38;2.77;;;2.67;;
17614;SDS011;8926;49.720;6.576;2023-05-14T08:36:04;2.30;;;2.20;;
17614;SDS011;8926;49.720;6.576;2023-05-14T08:38:30;2.60;;;2.50;;
17614;SDS011;8926;49.720;6.576;2023-05-14T08:40:55;2.80;;;2.60;;
17614;SDS011;8926;49.720;6.576;2023-05-14T08:43:25;2.90;;;2.80;;
17614;SDS011;8926;49.720;6.576;2023-05-14T08:45:56;3.13;;;2.93;;
17614;SDS011;8926;49.720;6.576;2023-05-14T08:48:25;3.20;;;3.07;;
17614;SDS011;8926;49.720;6.576;2023-05-14T08:50:55;2.40;;;2.30;;
17614;SDS011;8926;49.720;6.576;2023-05-14T08:53:21;3.07;;;2.90;;
17614;SDS011;8926;49.720;6.576;2023-05-14T08:55:47;2.73;;;2.63;;
17614;SDS011;8926;49.720;6.576;2023-05-14T08:58:15;2.90;;;2.80;;
17614;SDS011;8926;49.720;6.576;2023-05-14T09:00:41;3.00;;;2.87;;
17614;SDS011;8926;49.720;6.576;2023-05-14T09:03:06;4.20;;;4.00;;
17614;SDS011;8926;49.720;6.576;2023-05-14T09:05:32;3.97;;;3.67;;
17614;SDS011;8926;49.720;6.576;2023-05-14T09:07:58;3.87;;;3.57;;
17614;SDS011;8926;49.720;6.576;2023-05-14T09:10:23;2.97;;;2.77;;
17614;SDS011;8926;49.720;6.576;2023-05-14T09:12:48;2.67;;;2.57;;
17614;SDS011;8926;49.720;6.576;2023-05-14T09:15:14;2.90;;;2.70;;
17614;SDS011;8926;49.720;6.576;2023-05-14T09:17:39;3.00;;;2.80;;
17614;SDS011;8926;49.720;6.576;2023-05-14T09:20:05;3.20;;;3.00;;
17614;SDS011;8926;49.720;6.576;2023-05-14T09:22:31;2.50;;;2.40;;
17614;SDS011;8926;49.720;6.576;2023-05-14T09:25:06;3.00;;;2.80;;
17614;SDS011;8926;49.720;6.576;2023-05-14T09:27:34;2.67;;;2.57;;
17614;SDS011;8926;49.720;6.576;2023-05-14T09:30:18;2.30;;;2.20;;
17614;SDS011;8926;49.720;6.576;2023-05-14T09:32:43;2.30;;;2.20;;
17614;SDS011;8926;49.720;6.576;2023-05-14T09:35:17;2.43;;;2.33;;
17614;SDS011;8926;49.720;6.576;2023-05-14T09:37:44;2.10;;;2.00;;
17614;SDS011;8926;49.720;6.576;2023-05-14T09:40:11;2.60;;;2.40;;
17614;SDS011;8926;49.720;6.576;2023-05-14T09:42:37;2.20;;;2.10;;
17614;SDS011;8926;49.720;6.576;2023-05-14T09:45:03;2.77;;;2.57;;
17614;SDS011;8926;49.720;6.576;2023-05-14T09:47:29;2.23;;;2.13;;
17614;SDS011;8926;49.720;6.576;2023-05-14T09:49:55;1.97;;;1.87;;
17614;SDS011;8926;49.720;6.576;2023-05-14T09:52:22;2.10;;;2.00;;
17614;SDS011;8926;49.720;6.576;2023-05-14T09:54:49;2.17;;;2.07;;
17614;SDS011;8926;49.720;6.576;2023-05-14T09:57:15;2.43;;;2.33;;
17614;SDS011;8926;49.720;6.576;2023-05-14T09:59:40;3.30;;;3.10;;
17614;SDS011;8926;49.720;6.576;2023-05-14T10:02:06;3.63;;;2.50;;
17614;SDS011;8926;49.720;6.576;2023-05-14T10:04:41;3.43;;;3.23;;
17614;SDS011;8926;49.720;6.576;2023-05-14T10:07:07;2.07;;;1.97;;
17614;SDS011;8926;49.720;6.576;2023-05-14T10:09:33;2.80;;;2.60;;
17614;SDS011;8926;49.720;6.576;2023-05-14T10:12:02;2.60;;;2.40;;
17614;SDS011;8926;49.720;6.576;2023-05-14T10:14:37;2.33;;;2.23;;
17614;SDS011;8926;49.720;6.576;2023-05-14T10:17:05;2.40;;;2.20;;
17614;SDS011;8926;49.720;6.576;2023-05-14T10:19:32;2.00;;;1.90;;
17614;SDS011;8926;49.720;6.576;2023-05-14T10:22:05;2.00;;;1.90;;
17614;SDS011;8926;49.720;6.576;2023-05-14T10:24:32;1.87;;;1.77;;
17614;SDS011;8926;49.720;6.576;2023-05-14T10:26:58;1.83;;;1.73;;
17614;SDS011;8926;49.720;6.576;2023-05-14T10:29:30;1.43;;;1.43;;
17614;SDS011;8926;49.720;6.576;2023-05-14T10:32:04;1.40;;;1.40;;
17614;SDS011;8926;49.720;6.576;2023-05-14T10:34:32;1.80;;;1.70;;
17614;SDS011;8926;49.720;6.576;2023-05-14T10:37:10;1.80;;;1.70;;
17614;SDS011;8926;49.720;6.576;2023-05-14T10:39:45;1.70;;;1.60;;
17614;SDS011;8926;49.720;6.576;2023-05-14T10:44:44;1.10;;;1.10;;
17614;SDS011;8926;49.720;6.576;2023-05-14T10:47:12;1.40;;;1.40;;
17614;SDS011;8926;49.720;6.576;2023-05-14T10:49:38;1.10;;;1.10;;
17614;SDS011;8926;49.720;6.576;2023-05-14T10:52:07;1.00;;;1.00;;
17614;SDS011;8926;49.720;6.576;2023-05-14T10:54:36;1.60;;;1.50;;
17614;SDS011;8926;49.720;6.576;2023-05-14T10:57:02;1.10;;;1.10;;
17614;SDS011;8926;49.720;6.576;2023-05-14T10:59:27;0.90;;;0.90;;
17614;SDS011;8926;49.720;6.576;2023-05-14T11:01:53;1.17;;;0.97;;
17614;SDS011;8926;49.720;6.576;2023-05-14T11:04:23;0.93;;;0.93;;
17614;SDS011;8926;49.720;6.576;2023-05-14T11:06:49;1.13;;;1.13;;
17614;SDS011;8926;49.720;6.576;2023-05-14T11:09:17;1.63;;;1.53;;
17614;SDS011;8926;49.720;6.576;2023-05-14T11:11:45;1.20;;;1.20;;
17614;SDS011;8926;49.720;6.576;2023-05-14T11:14:11;1.30;;;1.30;;
17614;SDS011;8926;49.720;6.576;2023-05-14T11:16:37;1.63;;;1.57;;
17614;SDS011;8926;49.720;6.576;2023-05-14T11:19:03;1.60;;;1.50;;
17614;SDS011;8926;49.720;6.576;2023-05-14T11:21:29;1.80;;;1.70;;
17614;SDS011;8926;49.720;6.576;2023-05-14T11:23:56;1.60;;;1.60;;
17614;SDS011;8926;49.720;6.576;2023-05-14T11:26:22;1.47;;;1.47;;
17614;SDS011;8926;49.720;6.576;2023-05-14T11:28:47;1.57;;;1.50;;
17614;SDS011;8926;49.720;6.576;2023-05-14T11:31:13;2.30;;;1.90;;
17614;SDS011;8926;49.720;6.576;2023-05-14T11:33:38;1.40;;;1.40;;
17614;SDS011;8926;49.720;6.576;2023-05-14T11:36:04;1.20;;;1.20;;
17614;SDS011;8926;49.720;6.576;2023-05-14T11:38:30;1.50;;;1.50;;
17614;SDS011;8926;49.720;6.576;2023-05-14T11:40:56;1.60;;;1.50;;
17614;SDS011;8926;49.720;6.576;2023-05-14T11:43:22;1.70;;;1.60;;
17614;SDS011;8926;49.720;6.576;2023-05-14T11:45:49;1.70;;;1.60;;
17614;SDS011;8926;49.720;6.576;2023-05-14T11:48:16;1.53;;;1.53;;
17614;SDS011;8926;49.720;6.576;2023-05-14T11:50:48;2.17;;;1.60;;
17614;SDS011;8926;49.720;6.576;2023-05-14T11:53:24;1.60;;;1.50;;
17614;SDS011;8926;49.720;6.576;2023-05-14T11:55:51;1.83;;;1.73;;
17614;SDS011;8926;49.720;6.576;2023-05-14T11:58:18;1.47;;;1.37;;
17614;SDS011;8926;49.720;6.576;2023-05-14T12:00:44;1.57;;;1.47;;
17614;SDS011;8926;49.720;6.576;2023-05-14T12:03:10;1.97;;;1.87;;
17614;SDS011;8926;49.720;6.576;2023-05-14T12:05:38;1.80;;;1.70;;
17614;SDS011;8926;49.720;6.576;2023-05-14T12:08:26;1.43;;;1.43;;
17614;SDS011;8926;49.720;6.576;2023-05-14T12:10:51;1.70;;;1.60;;
17614;SDS011;8926;49.720;6.576;2023-05-14T12:13:17;1.80;;;1.70;;
17614;SDS011;8926;49.720;6.576;2023-05-14T12:15:46;2.10;;;2.00;;
17614;SDS011;8926;49.720;6.576;2023-05-14T12:18:12;1.73;;;1.63;;
17614;SDS011;8926;49.720;6.576;2023-05-14T12:20:37;1.43;;;1.43;;
17614;SDS011;8926;49.720;6.576;2023-05-14T12:23:03;1.60;;;1.50;;
17614;SDS011;8926;49.720;6.576;2023-05-14T12:25:29;2.07;;;1.97;;
17614;SDS011;8926;49.720;6.576;2023-05-14T12:27:54;1.60;;;1.50;;
17614;SDS011;8926;49.720;6.576;2023-05-14T12:30:19;1.10;;;1.10;;
17614;SDS011;8926;49.720;6.576;2023-05-14T12:32:45;1.50;;;1.40;;
17614;SDS011;8926;49.720;6.576;2023-05-14T12:35:10;1.90;;;1.80;;
17614;SDS011;8926;49.720;6.576;2023-05-14T12:37:35;1.40;;;1.40;;
17614;SDS011;8926;49.720;6.576;2023-05-14T12:40:03;1.67;;;1.57;;
17614;SDS011;8926;49.720;6.576;2023-05-14T12:42:35;1.60;;;1.50;;
17614;SDS011;8926;49.720;6.576;2023-05-14T12:45:01;1.60;;;1.50;;
17614;SDS011;8926;49.720;6.576;2023-05-14T12:47:29;1.60;;;1.50;;
17614;SDS011;8926;49.720;6.576;2023-05-14T12:49:56;1.40;;;1.30;;
17614;SDS011;8926;49.720;6.576;2023-05-14T12:52:21;1.30;;;1.30;;
17614;SDS011;8926;49.720;6.576;2023-05-14T12:54:46;0.90;;;0.90;;
17614;SDS011;8926;49.720;6.576;2023-05-14T12:57:12;1.20;;;1.20;;
17614;SDS011;8926;49.720;6.576;2023-05-14T12:59:37;1.20;;;1.10;;
17614;SDS011;8926;49.720;6.576;2023-05-14T13:02:02;0.80;;;0.80;;
17614;SDS011;8926;49.720;6.576;2023-05-14T13:04:27;0.83;;;0.83;;
17614;SDS011;8926;49.720;6.576;2023-05-14T13:06:53;0.80;;;0.80;;
17614;SDS011;8926;49.720;6.576;2023-05-14T13:09:18;0.90;;;0.90;;
17614;SDS011;8926;49.720;6.576;2023-05-14T13:11:43;0.90;;;0.90;;
17614;SDS011;8926;49.720;6.576;2023-05-14T13:14:08;0.83;;;0.83;;
17614;SDS011;8926;49.720;6.576;2023-05-14T13:16:34;0.73;;;0.73;;
17614;SDS011;8926;49.720;6.576;2023-05-14T13:18:59;1.03;;;0.73;;
17614;SDS011;8926;49.720;6.576;2023-05-14T13:21:24;0.87;;;0.87;;
17614;SDS011;8926;49.720;6.576;2023-05-14T13:23:50;0.83;;;0.83;;
17614;SDS011;8926;49.720;6.576;2023-05-14T13:26:15;0.70;;;0.70;;
17614;SDS011;8926;49.720;6.576;2023-05-14T13:28:41;0.83;;;0.83;;
17614;SDS011;8926;49.720;6.576;2023-05-14T13:31:10;1.10;;;1.10;;
17614;SDS011;8926;49.720;6.576;2023-05-14T13:33:40;1.23;;;1.23;;
17614;SDS011;8926;49.720;6.576;2023-05-14T13:36:07;1.40;;;1.33;;
17614;SDS011;8926;49.720;6.576;2023-05-14T13:38:33;1.10;;;1.10;;
17614;SDS011;8926;49.720;6.576;2023-05-14T13:40:58;1.10;;;1.10;;
17614;SDS011;8926;49.720;6.576;2023-05-14T13:43:29;1.10;;;1.10;;
17614;SDS011;8926;49.720;6.576;2023-05-14T13:45:55;0.90;;;0.90;;
17614;SDS011;8926;49.720;6.576;2023-05-14T13:48:21;1.20;;;1.20;;
17614;SDS011;8926;49.720;6.576;2023-05-14T13:50:47;1.30;;;1.30;;
17614;SDS011;8926;49.720;6.576;2023-05-14T13:53:13;1.37;;;1.37;;
17614;SDS011;8926;49.720;6.576;2023-05-14T13:55:38;1.40;;;1.40;;
17614;SDS011;8926;49.720;6.576;2023-05-14T13:58:03;1.30;;;1.30;;
17614;SDS011;8926;49.720;6.576;2023-05-14T14:02:58;1.23;;;1.23;;
17614;SDS011;8926;49.720;6.576;2023-05-14T14:05:23;1.23;;;1.23;;
17614;SDS011;8926;49.720;6.576;2023-05-14T14:07:52;1.40;;;1.40;;
17614;SDS011;8926;49.720;6.576;2023-05-14T14:10:18;1.60;;;1.20;;
17614;SDS011;8926;49.720;6.576;2023-05-14T14:12:43;1.37;;;1.37;;
17614;SDS011;8926;49.720;6.576;2023-05-14T14:15:08;1.10;;;1.10;;
17614;SDS011;8926;49.720;6.576;2023-05-14T14:17:34;1.17;;;1.17;;
17614;SDS011;8926;49.720;6.576;2023-05-14T14:20:00;1.10;;;1.10;;
17614;SDS011;8926;49.720;6.576;2023-05-14T14:22:26;0.90;;;0.90;;
17614;SDS011;8926;49.720;6.576;2023-05-14T14:24:51;0.67;;;0.67;;
17614;SDS011;8926;49.720;6.576;2023-05-14T14:27:16;0.60;;;0.60;;
17614;SDS011;8926;49.720;6.576;2023-05-14T14:29:42;0.70;;;0.70;;
17614;SDS011;8926;49.720;6.576;2023-05-14T14:32:07;0.60;;;0.60;;
17614;SDS011;8926;49.720;6.576;2023-05-14T14:34:32;0.60;;;0.60;;
17614;SDS011;8926;49.720;6.576;2023-05-14T14:36:58;0.63;;;0.63;;
17614;SDS011;8926;49.720;6.576;2023-05-14T14:39:23;0.67;;;0.67;;
17614;SDS011;8926;49.720;6.576;2023-05-14T14:41:49;0.80;;;0.80;;
17614;SDS011;8926;49.720;6.576;2023-05-14T14:44:15;0.70;;;0.70;;
17614;SDS011;8926;49.720;6.576;2023-05-14T14:46:40;1.00;;;1.00;;
17614;SDS011;8926;49.720;6.576;2023-05-14T14:49:06;0.70;;;0.70;;
17614;SDS011;8926;49.720;6.576;2023-05-14T14:51:32;0.83;;;0.80;;
17614;SDS011;8926;49.720;6.576;2023-05-14T14:53:57;0.80;;;0.80;;
17614;SDS011;8926;49.720;6.576;2023-05-14T14:56:23;1.00;;;1.00;;
17614;SDS011;8926;49.720;6.576;2023-05-14T14:58:48;1.00;;;1.00;;
17614;SDS011;8926;49.720;6.576;2023-05-14T15:01:13;0.70;;;0.70;;
17614;SDS011;8926;49.720;6.576;2023-05-14T15:03:39;0.87;;;0.87;;
17614;SDS011;8926;49.720;6.576;2023-05-14T15:06:04;1.10;;;1.00;;